Time;durP1;ratioP1;P1;durP2;ratioP2;P2;SDS_P1;SDS_P2;PMS_P1;PMS_P2;Temp;Humidity;BMP_temperature;BMP_pressure;BME280_temperature;BME280_humidity;BME280_pressure;Samples;Min_cycle;Max_cycle;Signal;HPM_P1;HPM_P2
2022/10/14 00:02:01;;;;;;;63.30;22.23;;;11.30;99.90;;;;;;5137087;27;20058;-77
2022/10/14 00:04:26;;;;;;;62.42;21.90;;;11.30;99.90;;;;;;5136686;27;20034;-77
2022/10/14 00:06:52;;;;;;;67.93;23.90;;;11.20;99.90;;;;;;5136954;27;20047;-77
2022/10/14 00:09:18;;;;;;;76.15;24.23;;;11.10;99.90;;;;;;5136955;27;20384;-78
2022/10/14 00:11:43;;;;;;;70.07;23.15;;;11.00;99.90;;;;;;5136711;27;20047;-77
2022/10/14 00:14:16;;;;;;;74.53;23.48;;;11.00;99.90;;;;;;5139353;27;20089;-76
2022/10/14 00:16:43;;;;;;;63.22;21.58;;;10.90;99.90;;;;;;5140120;27;20356;-76
2022/10/14 00:19:09;;;;;;;91.43;25.00;;;10.80;99.90;;;;;;5160417;27;20054;-76
2022/10/14 00:21:37;;;;;;;58.90;22.00;;;10.80;99.90;;;;;;5160447;27;20081;-77
2022/10/14 00:24:04;;;;;;;70.95;21.60;;;10.80;99.90;;;;;;5158353;27;20102;-77
2022/10/14 00:26:35;;;;;;;416.30;27.20;;;10.90;99.90;;;;;;5138814;27;20058;-79
2022/10/14 00:29:03;;;;;;;306.35;27.20;;;10.90;99.90;;;;;;5157222;27;20347;-77
2022/10/14 00:31:28;;;;;;;110.18;19.15;;;11.00;99.90;;;;;;5120732;27;20166;-76
2022/10/14 00:33:54;;;;;;;120.30;19.55;;;11.00;99.90;;;;;;5137507;27;20046;-76
2022/10/14 00:36:23;;;;;;;92.50;18.88;;;11.10;99.90;;;;;;5136744;27;20338;-76
2022/10/14 00:38:49;;;;;;;115.78;19.58;;;11.20;99.90;;;;;;5136485;27;20476;-76
2022/10/14 00:41:24;;;;;;;110.88;18.98;;;11.20;99.90;;;;;;5154563;27;20062;-75
2022/10/14 00:44:00;;;;;;;133.30;18.02;;;11.30;99.90;;;;;;5135895;27;20506;-76
2022/10/14 00:46:29;;;;;;;97.85;18.35;;;11.30;99.90;;;;;;5153966;27;20042;-76
2022/10/14 00:48:57;;;;;;;161.40;19.77;;;11.30;99.90;;;;;;5154997;27;20050;-76
2022/10/14 00:51:23;;;;;;;74.45;16.95;;;11.40;99.90;;;;;;5135761;27;20496;-75
2022/10/14 00:53:49;;;;;;;67.28;16.80;;;11.40;99.90;;;;;;5155085;27;20122;-76
2022/10/14 00:56:19;;;;;;;173.32;21.10;;;11.40;99.90;;;;;;5154263;27;20054;-75
2022/10/14 00:58:45;;;;;;;107.63;17.98;;;11.40;99.90;;;;;;5119144;27;20405;-77
2022/10/14 01:01:11;;;;;;;97.32;19.17;;;11.50;99.90;;;;;;5154293;27;20117;-81
2022/10/14 01:03:37;;;;;;;103.25;18.58;;;11.50;99.90;;;;;;5135823;27;20380;-77
2022/10/14 01:06:21;;;;;;;213.63;22.30;;;11.50;99.90;;;;;;5136254;27;20378;-77
2022/10/14 01:09:12;;;;;;;110.00;18.75;;;11.50;99.90;;;;;;5136171;27;20102;-77
2022/10/14 01:11:57;;;;;;;90.60;19.25;;;11.50;99.90;;;;;;5153970;27;20516;-77
2022/10/14 01:14:49;;;;;;;83.95;19.63;;;11.50;99.90;;;;;;5154116;27;20135;-77
2022/10/14 01:17:44;;;;;;;90.55;18.33;;;11.60;99.90;;;;;;5154462;27;20055;-77
2022/10/14 01:20:38;;;;;;;79.43;16.92;;;11.60;99.90;;;;;;5136630;27;20133;-75
2022/10/14 01:23:41;;;;;;;84.97;18.08;;;11.50;99.90;;;;;;5154159;27;20042;-75
2022/10/14 01:26:35;;;;;;;65.00;15.80;;;11.50;99.90;;;;;;5154050;27;20042;-76
2022/10/14 01:29:41;;;;;;;84.75;16.13;;;11.60;99.90;;;;;;5153849;27;20099;-76
2022/10/14 01:32:23;;;;;;;154.35;15.30;;;11.60;99.90;;;;;;5154067;27;20082;-75
2022/10/14 01:34:54;;;;;;;196.63;18.50;;;11.60;99.90;;;;;;5135435;27;20043;-77
2022/10/14 01:37:25;;;;;;;468.98;26.42;;;11.60;99.90;;;;;;5154027;27;20046;-77
2022/10/14 01:39:56;;;;;;;238.35;20.50;;;11.60;99.90;;;;;;5153863;27;20086;-75
2022/10/14 01:42:30;;;;;;;259.95;22.35;;;11.60;99.90;;;;;;5153975;27;20038;-76
2022/10/14 01:45:14;;;;;;;84.72;17.45;;;11.60;99.90;;;;;;5153876;27;20039;-77
2022/10/14 01:47:41;;;;;;;187.75;19.77;;;11.60;99.90;;;;;;5136245;27;20047;-76
2022/10/14 01:50:19;;;;;;;481.40;24.98;;;11.60;99.90;;;;;;5154236;27;20047;-77
2022/10/14 01:52:57;;;;;;;437.73;24.70;;;11.50;99.90;;;;;;5135589;27;20077;-77
2022/10/14 01:55:26;;;;;;;213.90;19.30;;;11.60;99.90;;;;;;5153659;27;20050;-77
2022/10/14 01:57:55;;;;;;;192.13;20.05;;;11.50;99.90;;;;;;5156866;27;20042;-77
2022/10/14 02:00:21;;;;;;;127.13;20.00;;;11.60;99.90;;;;;;5157774;27;20047;-76
2022/10/14 02:02:47;;;;;;;303.05;23.52;;;11.50;99.90;;;;;;5158005;27;20129;-78
2022/10/14 02:05:24;;;;;;;200.63;21.85;;;11.50;99.90;;;;;;5139459;27;20045;-76
2022/10/14 02:08:17;;;;;;;177.85;21.52;;;11.50;99.90;;;;;;5140012;27;20501;-78
2022/10/14 02:11:16;;;;;;;115.78;20.77;;;11.50;99.90;;;;;;5156786;27;20046;-77
2022/10/14 02:14:14;;;;;;;109.75;20.27;;;11.50;99.90;;;;;;5139492;27;20431;-78
2022/10/14 02:17:11;;;;;;;139.30;22.83;;;11.50;99.90;;;;;;5082457;27;20050;-80
2022/10/14 02:19:59;;;;;;;160.55;22.92;;;11.60;99.90;;;;;;5138864;27;20054;-78
2022/10/14 02:22:25;;;;;;;104.38;20.90;;;11.50;99.90;;;;;;5139232;27;20042;-78
2022/10/14 02:24:58;;;;;;;119.75;20.80;;;11.50;99.90;;;;;;5157356;27;20385;-76
2022/10/14 02:27:26;;;;;;;401.60;28.38;;;11.50;99.90;;;;;;5138605;27;20129;-78
2022/10/14 02:29:54;;;;;;;161.88;21.45;;;11.50;99.90;;;;;;5122108;27;20047;-77
2022/10/14 02:32:23;;;;;;;160.02;22.52;;;11.50;99.90;;;;;;5157353;27;20107;-77
2022/10/14 02:34:52;;;;;;;190.60;23.15;;;11.50;99.90;;;;;;5138381;27;20478;-77
2022/10/14 02:37:21;;;;;;;192.40;24.80;;;11.50;99.90;;;;;;5157057;27;20038;-78
2022/10/14 02:40:31;;;;;;;315.50;25.50;;;11.50;99.90;;;;;;5157067;27;20103;-77
2022/10/14 02:42:57;;;;;;;193.65;19.70;;;11.40;99.90;;;;;;5036527;28;20131;-76
2022/10/14 02:45:25;;;;;;;212.48;20.30;;;11.40;99.90;;;;;;5140927;27;20458;-79
2022/10/14 02:47:52;;;;;;;198.65;21.02;;;11.40;99.90;;;;;;5157109;27;20490;-77
2022/10/14 02:50:18;;;;;;;200.77;20.83;;;11.40;99.90;;;;;;5139289;27;20137;-77
2022/10/14 02:52:44;;;;;;;534.20;27.00;;;11.40;99.90;;;;;;5121926;27;20078;-78
2022/10/14 02:55:10;;;;;;;550.47;28.48;;;11.30;99.90;;;;;;5156819;27;20474;-78
2022/10/14 02:57:36;;;;;;;170.70;20.35;;;11.30;99.90;;;;;;5121098;27;20134;-76
2022/10/14 03:00:04;;;;;;;178.55;17.10;;;11.30;99.90;;;;;;5121734;27;20103;-76
2022/10/14 03:02:30;;;;;;;126.10;16.33;;;11.30;99.90;;;;;;5156743;27;20488;-78
2022/10/14 03:04:57;;;;;;;183.77;16.98;;;11.30;99.90;;;;;;5156551;27;20046;-77
2022/10/14 03:07:23;;;;;;;153.38;17.45;;;11.30;99.90;;;;;;5137712;27;20055;-76
2022/10/14 03:09:49;;;;;;;216.82;19.17;;;11.30;99.90;;;;;;5156762;27;20358;-75
2022/10/14 03:12:15;;;;;;;137.15;17.23;;;11.30;99.90;;;;;;5121310;27;20046;-76
2022/10/14 03:14:41;;;;;;;223.05;19.00;;;11.20;99.90;;;;;;5121533;27;20185;-79
2022/10/14 03:17:07;;;;;;;202.65;18.02;;;11.30;99.90;;;;;;5156864;27;20066;-78
2022/10/14 03:19:33;;;;;;;126.53;17.65;;;11.30;99.90;;;;;;5138797;27;20072;-79
2022/10/14 03:21:59;;;;;;;249.50;21.60;;;11.30;99.90;;;;;;5137767;27;20050;-77
2022/10/14 03:24:25;;;;;;;134.93;19.38;;;11.40;99.90;;;;;;5156188;27;20039;-77
2022/10/14 03:26:51;;;;;;;111.20;20.40;;;11.30;99.90;;;;;;5138286;27;20445;-77
2022/10/14 03:29:16;;;;;;;183.15;23.77;;;11.40;99.90;;;;;;5120708;27;20130;-77
2022/10/14 03:31:42;;;;;;;181.15;23.40;;;11.40;99.90;;;;;;5137653;27;20111;-77
2022/10/14 03:34:09;;;;;;;146.48;23.95;;;11.40;99.90;;;;;;5120976;27;20158;-76
2022/10/14 03:36:35;;;;;;;138.05;21.83;;;11.40;99.90;;;;;;5137112;27;20046;-76
2022/10/14 03:39:00;;;;;;;106.28;20.30;;;11.40;99.90;;;;;;5137648;27;20181;-76
2022/10/14 03:41:26;;;;;;;82.38;18.45;;;11.40;99.90;;;;;;5137576;27;20042;-76
2022/10/14 03:43:52;;;;;;;97.38;19.40;;;11.30;99.90;;;;;;5121080;27;20055;-78
2022/10/14 03:46:18;;;;;;;129.10;20.42;;;11.40;99.90;;;;;;5137673;27;20043;-77
2022/10/14 03:48:44;;;;;;;97.38;19.52;;;11.30;99.90;;;;;;5155838;27;20184;-80
2022/10/14 03:51:10;;;;;;;176.30;21.85;;;11.30;99.90;;;;;;5155976;27;20505;-80
2022/10/14 03:53:35;;;;;;;84.60;17.52;;;11.30;99.90;;;;;;5137296;27;20380;-78
2022/10/14 03:56:01;;;;;;;88.45;18.55;;;11.20;99.90;;;;;;5155706;27;20047;-77
2022/10/14 03:58:27;;;;;;;79.47;19.30;;;11.20;99.90;;;;;;5120939;27;20366;-77
2022/10/14 04:00:53;;;;;;;91.82;19.80;;;11.10;99.90;;;;;;5137257;27;20386;-77
2022/10/14 04:03:18;;;;;;;86.95;17.42;;;11.10;99.90;;;;;;5136816;27;20042;-77
2022/10/14 04:05:44;;;;;;;83.38;18.45;;;11.10;99.90;;;;;;5155288;27;20082;-76
2022/10/14 04:08:10;;;;;;;81.25;17.98;;;11.10;99.90;;;;;;5102781;27;20093;-77
2022/10/14 04:10:36;;;;;;;133.07;18.98;;;11.00;99.90;;;;;;5155661;27;20106;-78
2022/10/14 04:13:02;;;;;;;91.50;18.73;;;11.00;99.90;;;;;;5137101;27;20125;-77
2022/10/14 04:15:27;;;;;;;75.03;18.65;;;11.00;99.90;;;;;;5119676;27;20065;-77
2022/10/14 04:17:54;;;;;;;92.97;18.02;;;11.00;99.90;;;;;;5155712;27;20058;-78
2022/10/14 04:20:20;;;;;;;132.80;20.30;;;11.00;99.90;;;;;;5137495;27;20046;-76
2022/10/14 04:22:46;;;;;;;98.55;18.83;;;11.00;99.90;;;;;;5155648;27;20554;-77
2022/10/14 04:25:11;;;;;;;86.00;18.17;;;11.00;99.90;;;;;;5102777;27;20065;-78
2022/10/14 04:27:37;;;;;;;80.35;18.83;;;11.00;99.90;;;;;;5137618;27;20126;-77
2022/10/14 04:30:04;;;;;;;96.57;19.92;;;10.90;99.90;;;;;;5138049;27;20043;-77
2022/10/14 04:32:30;;;;;;;114.05;18.90;;;11.00;99.90;;;;;;5137928;27;20082;-76
2022/10/14 04:34:55;;;;;;;92.13;19.52;;;10.90;99.90;;;;;;5156196;27;20170;-77
2022/10/14 04:37:21;;;;;;;101.72;17.95;;;11.00;99.90;;;;;;5138085;27;20379;-76
2022/10/14 04:39:47;;;;;;;94.43;17.80;;;11.00;99.90;;;;;;5138171;27;20130;-78
2022/10/14 04:42:13;;;;;;;115.10;18.05;;;11.00;99.90;;;;;;5140907;27;20121;-76
2022/10/14 04:44:38;;;;;;;88.80;18.35;;;11.00;99.90;;;;;;5167798;27;20071;-76
2022/10/14 04:47:04;;;;;;;100.30;17.77;;;11.00;99.90;;;;;;5170265;27;20047;-75
2022/10/14 04:49:30;;;;;;;99.82;17.48;;;11.00;99.90;;;;;;5169869;27;20042;-81
2022/10/14 04:51:56;;;;;;;105.13;17.98;;;11.10;99.90;;;;;;5170205;27;20043;-77
2022/10/14 04:54:22;;;;;;;95.28;17.58;;;11.10;99.90;;;;;;5154064;27;20047;-80
2022/10/14 04:56:48;;;;;;;108.97;17.77;;;11.10;99.90;;;;;;5153988;27;20066;-76
2022/10/14 04:59:13;;;;;;;105.03;17.77;;;11.10;99.90;;;;;;5154141;27;20046;-75
2022/10/14 05:01:39;;;;;;;121.47;19.67;;;11.10;99.90;;;;;;5152200;27;20077;-76
2022/10/14 05:04:05;;;;;;;124.78;19.13;;;11.10;99.90;;;;;;5153360;27;20072;-75
2022/10/14 05:06:34;;;;;;;131.68;17.65;;;11.10;99.90;;;;;;5151764;27;20039;-73
2022/10/14 05:08:59;;;;;;;147.35;18.40;;;11.10;99.90;;;;;;5132813;27;20212;-76
2022/10/14 05:11:25;;;;;;;165.80;18.52;;;11.30;99.90;;;;;;5139730;27;20089;-75
2022/10/14 05:13:51;;;;;;;198.60;21.02;;;11.30;99.90;;;;;;5121884;27;20110;-76
2022/10/14 05:16:17;;;;;;;190.50;21.60;;;11.20;99.90;;;;;;5156218;27;20160;-77
2022/10/14 05:18:43;;;;;;;123.57;18.88;;;11.20;99.90;;;;;;5138142;27;20451;-76
2022/10/14 05:21:08;;;;;;;177.48;19.25;;;11.10;99.90;;;;;;5126258;27;20050;-77
2022/10/14 05:23:34;;;;;;;102.95;19.98;;;11.20;99.90;;;;;;5162309;27;20074;-76
2022/10/14 05:26:00;;;;;;;146.15;19.23;;;11.20;99.90;;;;;;5141194;27;20046;-76
2022/10/14 05:28:26;;;;;;;145.80;21.48;;;11.20;99.90;;;;;;5138930;27;20117;-75
2022/10/14 05:30:52;;;;;;;140.07;21.73;;;11.20;99.90;;;;;;5138647;27;20082;-75
2022/10/14 05:33:17;;;;;;;106.13;20.73;;;11.20;99.90;;;;;;5142097;27;20328;-75
2022/10/14 05:35:43;;;;;;;118.10;21.00;;;11.20;99.90;;;;;;5142815;27;20053;-84
2022/10/14 05:38:11;;;;;;;87.47;20.88;;;11.20;99.90;;;;;;5160965;27;20052;-76
2022/10/14 05:40:37;;;;;;;74.93;17.50;;;11.20;99.90;;;;;;5116855;27;20089;-76
2022/10/14 05:43:03;;;;;;;73.38;17.73;;;11.20;99.90;;;;;;5136723;27;20040;-77
2022/10/14 05:45:28;;;;;;;70.75;17.35;;;11.30;99.90;;;;;;5152894;27;20077;-77
2022/10/14 05:47:54;;;;;;;73.22;17.02;;;11.30;99.90;;;;;;5148207;27;20046;-78
2022/10/14 05:50:20;;;;;;;67.90;16.23;;;11.20;99.90;;;;;;5144191;27;20482;-78
2022/10/14 05:52:46;;;;;;;68.05;15.10;;;11.20;99.90;;;;;;5161120;27;20106;-84
2022/10/14 05:55:15;;;;;;;65.90;15.93;;;11.10;99.90;;;;;;5162092;27;20078;-78
2022/10/14 05:57:43;;;;;;;68.65;17.67;;;11.20;99.90;;;;;;5163181;27;20398;-78
2022/10/14 06:00:09;;;;;;;61.50;15.90;;;11.20;99.90;;;;;;5128268;27;20106;-77
2022/10/14 06:02:35;;;;;;;66.03;16.80;;;11.10;99.90;;;;;;5145465;27;20109;-77
2022/10/14 06:05:01;;;;;;;63.35;15.73;;;11.20;99.90;;;;;;5143335;27;20119;-77
2022/10/14 06:07:27;;;;;;;69.07;15.88;;;11.20;99.90;;;;;;5141785;27;20407;-77
2022/10/14 06:09:52;;;;;;;58.72;15.70;;;11.20;99.90;;;;;;5142817;27;20042;-80
2022/10/14 06:12:18;;;;;;;63.90;16.55;;;11.10;99.90;;;;;;5124968;27;20129;-78
2022/10/14 06:14:44;;;;;;;57.40;15.80;;;11.10;99.90;;;;;;5123796;27;20042;-77
2022/10/14 06:17:10;;;;;;;59.13;15.43;;;11.20;99.90;;;;;;5140870;27;20043;-77
2022/10/14 06:19:36;;;;;;;62.75;15.65;;;11.20;99.90;;;;;;5126338;27;20043;-77
2022/10/14 06:22:02;;;;;;;52.60;14.32;;;11.20;99.90;;;;;;5145577;27;20054;-76
2022/10/14 06:24:28;;;;;;;53.05;15.13;;;11.30;99.90;;;;;;5161451;27;20105;-76
2022/10/14 06:26:53;;;;;;;53.25;15.45;;;11.30;99.90;;;;;;5140291;27;20047;-78
2022/10/14 06:29:19;;;;;;;48.60;14.95;;;11.20;99.90;;;;;;5158954;27;20049;-77
2022/10/14 06:31:45;;;;;;;56.75;15.43;;;11.20;99.90;;;;;;5140301;27;20381;-80
2022/10/14 06:34:11;;;;;;;59.10;15.00;;;11.30;99.90;;;;;;5122989;27;20127;-78
2022/10/14 06:36:36;;;;;;;50.53;14.77;;;11.20;99.90;;;;;;5122340;27;20130;-77
2022/10/14 06:39:03;;;;;;;51.10;15.20;;;11.30;99.90;;;;;;5139869;27;20134;-78
2022/10/14 06:41:29;;;;;;;51.53;15.45;;;11.30;99.90;;;;;;5158345;27;20043;-77
2022/10/14 06:43:55;;;;;;;47.30;14.60;;;11.30;99.90;;;;;;5121877;27;20042;-77
2022/10/14 06:46:20;;;;;;;49.75;15.25;;;11.40;99.90;;;;;;5157447;27;20030;-77
2022/10/14 06:48:46;;;;;;;48.75;15.57;;;11.40;99.90;;;;;;5139914;27;20053;-82
2022/10/14 06:51:12;;;;;;;46.15;14.65;;;11.50;99.90;;;;;;5138928;27;20078;-76
2022/10/14 06:53:38;;;;;;;48.72;15.73;;;11.50;99.90;;;;;;5138734;27;20129;-76
2022/10/14 06:56:05;;;;;;;49.70;15.52;;;11.50;99.90;;;;;;5121615;27;20042;-77
2022/10/14 06:58:31;;;;;;;;;;;11.50;99.90;;;;;;5138681;27;20524;-77
2022/10/14 07:01:02;;;;;;;52.70;15.55;;;11.50;99.90;;;;;;5122510;27;19919;-77
2022/10/14 07:03:27;;;;;;;52.95;14.68;;;11.50;99.90;;;;;;5157811;27;20121;-78
2022/10/14 07:05:53;;;;;;;51.90;16.13;;;11.60;99.90;;;;;;5122747;27;20130;-81
2022/10/14 07:08:19;;;;;;;51.45;16.02;;;11.60;99.90;;;;;;5122289;27;20050;-77
2022/10/14 07:10:46;;;;;;;49.40;16.02;;;11.70;99.90;;;;;;5122090;27;20046;-77
2022/10/14 07:13:12;;;;;;;51.97;17.63;;;11.70;99.90;;;;;;5157154;27;20175;-77
2022/10/14 07:15:38;;;;;;;51.08;16.70;;;11.70;99.90;;;;;;5121240;27;20042;-76
2022/10/14 07:18:05;;;;;;;45.92;15.82;;;11.70;99.90;;;;;;5156746;27;20072;-79
2022/10/14 07:20:32;;;;;;;;;;;11.80;99.90;;;;;;5138186;27;20039;-77
2022/10/14 07:22:58;;;;;;;51.33;16.30;;;11.70;99.90;;;;;;5137966;27;19985;-82
2022/10/14 07:25:25;;;;;;;53.28;17.25;;;11.80;99.90;;;;;;5120339;27;20074;-76
2022/10/14 07:27:52;;;;;;;49.78;17.73;;;11.80;99.90;;;;;;5137723;27;20078;-78
2022/10/14 07:30:18;;;;;;;47.17;15.82;;;11.80;99.90;;;;;;5137899;27;20082;-76
2022/10/14 07:32:44;;;;;;;56.50;17.20;;;11.80;99.90;;;;;;5120840;27;20446;-77
2022/10/14 07:35:09;;;;;;;53.33;17.35;;;11.80;99.90;;;;;;5120684;27;20046;-77
2022/10/14 07:37:35;;;;;;;57.92;17.63;;;11.90;99.90;;;;;;5137644;27;20099;-77
2022/10/14 07:40:01;;;;;;;60.45;17.75;;;11.90;99.90;;;;;;5138012;27;20077;-77
2022/10/14 07:42:27;;;;;;;64.43;18.77;;;12.00;99.90;;;;;;5120756;27;20121;-77
2022/10/14 07:44:53;;;;;;;60.92;18.20;;;11.90;99.90;;;;;;5104055;27;20080;-76
2022/10/14 07:47:20;;;;;;;60.70;18.83;;;11.90;99.90;;;;;;5121537;27;20116;-77
2022/10/14 07:49:45;;;;;;;60.75;18.92;;;12.00;99.90;;;;;;5137609;27;20043;-76
2022/10/14 07:52:11;;;;;;;63.70;19.42;;;12.00;99.90;;;;;;5155819;27;20130;-77
2022/10/14 07:54:37;;;;;;;64.50;20.45;;;12.10;99.90;;;;;;5136709;27;20047;-76
2022/10/14 07:57:03;;;;;;;67.00;19.55;;;12.10;99.90;;;;;;5120851;27;20047;-77
2022/10/14 07:59:28;;;;;;;61.75;19.08;;;12.10;99.90;;;;;;5137981;27;20483;-77
2022/10/14 08:01:55;;;;;;;67.60;20.15;;;12.20;99.90;;;;;;5136833;27;20205;-76
2022/10/14 08:04:22;;;;;;;68.68;21.15;;;12.10;99.90;;;;;;5137370;27;20058;-76
2022/10/14 08:06:50;;;;;;;72.28;21.88;;;12.20;99.90;;;;;;5155463;27;20050;-76
2022/10/14 08:09:17;;;;;;;65.80;19.20;;;12.20;99.90;;;;;;5136735;27;20478;-75
2022/10/14 08:11:44;;;;;;;93.00;30.02;;;12.20;99.90;;;;;;5155354;27;20154;-75
2022/10/14 08:14:10;;;;;;;75.15;25.35;;;12.20;99.90;;;;;;5155308;27;20090;-78
2022/10/14 08:16:36;;;;;;;67.55;20.63;;;12.30;99.90;;;;;;5155472;27;20090;-75
2022/10/14 08:19:08;;;;;;;75.72;22.30;;;12.30;99.90;;;;;;5155261;27;20123;-77
2022/10/14 08:21:34;;;;;;;69.57;21.10;;;12.30;99.90;;;;;;5155355;27;20417;-75
2022/10/14 08:23:59;;;;;;;66.32;21.40;;;12.40;99.90;;;;;;5155205;27;20055;-74
2022/10/14 08:26:36;;;;;;;69.65;21.02;;;12.40;99.90;;;;;;5155141;27;20035;-76
2022/10/14 08:29:05;;;;;;;67.28;21.33;;;12.40;99.90;;;;;;5120237;27;20486;-75
2022/10/14 08:31:32;;;;;;;71.35;21.10;;;12.40;99.90;;;;;;5119753;27;20051;-76
2022/10/14 08:33:58;;;;;;;69.05;22.50;;;12.50;99.90;;;;;;5136795;27;20054;-75
2022/10/14 08:36:24;;;;;;;65.33;21.50;;;12.50;99.90;;;;;;5136252;27;20043;-76
2022/10/14 08:38:52;;;;;;;76.57;22.85;;;12.50;99.90;;;;;;5136535;27;20320;-76
2022/10/14 08:42:15;;;;;;;74.60;22.35;;;12.50;99.90;;;;;;5155282;27;20046;-76
2022/10/14 08:44:58;;;;;;;77.25;21.42;;;12.50;99.90;;;;;;5034001;28;20504;-74
2022/10/14 08:47:30;;;;;;;73.18;22.15;;;12.60;99.90;;;;;;5051167;28;20052;-77
2022/10/14 08:50:18;;;;;;;83.63;23.13;;;12.60;99.90;;;;;;5115873;27;20055;-77
2022/10/14 08:52:54;;;;;;;77.65;21.75;;;12.70;99.90;;;;;;5119667;27;20493;-77
2022/10/14 08:55:31;;;;;;;78.18;23.13;;;12.70;99.90;;;;;;5120144;27;20049;-78
2022/10/14 08:58:00;;;;;;;;;;;12.70;99.90;;;;;;5155087;27;20046;-75
2022/10/14 09:00:28;;;;;;;77.65;20.73;;;12.70;99.90;;;;;;5119153;27;20378;-83
2022/10/14 09:02:55;;;;;;;70.57;20.33;;;12.80;99.90;;;;;;5136005;27;20050;-75
2022/10/14 09:05:24;;;;;;;80.43;21.50;;;12.80;99.90;;;;;;5154724;27;20351;-79
2022/10/14 09:07:54;;;;;;;76.22;21.73;;;12.80;99.90;;;;;;5139904;27;20147;-79
2022/10/14 09:10:35;;;;;;;77.22;21.60;;;12.80;99.90;;;;;;5140489;27;20477;-79
2022/10/14 09:13:16;;;;;;;73.40;21.25;;;12.90;99.90;;;;;;5159436;27;20367;-78
2022/10/14 09:15:49;;;;;;;87.63;22.35;;;12.90;99.90;;;;;;5123034;27;20050;-76
2022/10/14 09:18:57;;;;;;;79.50;21.48;;;12.90;99.90;;;;;;5122836;27;20055;-75
2022/10/14 09:21:31;;;;;;;94.55;20.80;;;12.90;99.90;;;;;;5127743;27;20055;-77
2022/10/14 09:24:23;;;;;;;81.57;22.00;;;12.90;99.90;;;;;;5159380;27;20117;-78
2022/10/14 09:27:25;;;;;;;82.50;21.38;;;12.90;99.90;;;;;;5158443;27;20191;-76
2022/10/14 09:29:55;;;;;;;77.47;21.02;;;12.90;99.90;;;;;;5020841;28;20167;-76
2022/10/14 09:32:26;;;;;;;77.40;20.17;;;12.80;99.90;;;;;;5140530;27;20111;-73
2022/10/14 09:34:52;;;;;;;81.35;21.75;;;12.90;99.90;;;;;;5139634;27;20042;-74
2022/10/14 09:37:33;;;;;;;73.53;20.13;;;12.80;99.90;;;;;;5158889;27;20039;-74
2022/10/14 09:40:08;;;;;;;76.88;20.50;;;12.80;99.90;;;;;;5158008;27;20513;-73
2022/10/14 09:43:04;;;;;;;74.00;19.98;;;12.80;99.90;;;;;;5157908;27;20035;-75
2022/10/14 09:45:57;;;;;;;68.38;18.58;;;12.80;99.90;;;;;;5140463;27;20061;-74
2022/10/14 09:48:43;;;;;;;76.28;19.88;;;12.90;99.90;;;;;;5158042;27;20051;-74
2022/10/14 09:51:28;;;;;;;72.10;20.48;;;12.90;99.90;;;;;;5158665;27;20065;-77
2022/10/14 09:54:01;;;;;;;69.75;18.58;;;12.90;99.90;;;;;;5139445;27;20057;-75
2022/10/14 09:56:33;;;;;;;71.90;18.70;;;12.90;99.90;;;;;;5140881;27;20085;-73
2022/10/14 09:59:00;;;;;;;84.10;22.70;;;12.90;99.90;;;;;;5139949;27;20051;-75
2022/10/14 10:01:39;;;;;;;115.75;39.08;;;12.90;99.90;;;;;;5105691;27;20110;-75
2022/10/14 10:04:29;;;;;;;89.22;27.20;;;12.90;99.90;;;;;;5122674;27;20050;-74
2022/10/14 10:06:55;;;;;;;98.80;28.73;;;12.90;99.90;;;;;;5157870;27;20101;-73
2022/10/14 10:09:21;;;;;;;65.32;19.20;;;12.90;99.90;;;;;;5157252;27;20578;-78
2022/10/14 10:11:47;;;;;;;77.40;21.63;;;13.00;99.90;;;;;;5157430;27;20077;-74
2022/10/14 10:14:24;;;;;;;81.47;25.58;;;13.00;99.90;;;;;;5140077;27;20130;-74
2022/10/14 10:17:11;;;;;;;70.80;20.05;;;13.00;99.90;;;;;;5138257;27;20083;-75
2022/10/14 10:19:43;;;;;;;74.47;23.40;;;13.00;99.90;;;;;;5156618;27;20057;-75
2022/10/14 10:22:18;;;;;;;71.03;21.38;;;13.10;99.90;;;;;;5157000;27;20486;-72
2022/10/14 10:24:45;;;;;;;74.30;22.02;;;13.10;99.90;;;;;;5138998;27;20057;-73
2022/10/14 10:27:25;;;;;;;80.28;22.05;;;13.10;99.90;;;;;;5138711;27;20130;-73
2022/10/14 10:29:54;;;;;;;78.32;21.85;;;13.00;99.90;;;;;;5157774;27;20050;-73
2022/10/14 10:32:39;;;;;;;90.65;22.77;;;13.00;99.90;;;;;;5157070;27;20054;-73
2022/10/14 10:35:30;;;;;;;85.88;23.13;;;13.10;99.90;;;;;;5138434;27;20078;-73
2022/10/14 10:38:15;;;;;;;81.40;22.55;;;13.10;99.90;;;;;;5156868;27;20034;-72
2022/10/14 10:40:56;;;;;;;84.88;22.98;;;13.10;99.90;;;;;;5156780;27;20054;-73
2022/10/14 10:43:27;;;;;;;81.05;22.15;;;13.10;99.90;;;;;;5157635;27;20188;-79
2022/10/14 10:46:19;;;;;;;93.97;25.17;;;13.20;99.90;;;;;;5138534;27;20043;-73
2022/10/14 10:49:00;;;;;;;83.32;24.13;;;13.20;99.90;;;;;;5138122;27;20363;-73
2022/10/14 10:51:29;;;;;;;89.13;24.65;;;13.20;99.90;;;;;;5121388;27;20047;-72
2022/10/14 10:54:05;;;;;;;83.10;22.38;;;13.30;99.90;;;;;;5121166;27;20046;-71
2022/10/14 10:56:37;;;;;;;84.60;24.65;;;13.30;99.90;;;;;;5138619;27;20043;-72
2022/10/14 10:59:29;;;;;;;99.00;25.92;;;13.30;99.90;;;;;;5156768;27;20054;-73
2022/10/14 11:01:58;;;;;;;87.03;24.73;;;13.30;99.90;;;;;;5139126;27;20046;-72
2022/10/14 11:04:52;;;;;;;97.20;26.10;;;13.40;99.90;;;;;;5138054;27;20374;-80
2022/10/14 11:13:37;;;;;;;79.53;24.13;;;13.60;99.90;;;;;;5155925;27;20494;-72
2022/10/14 11:16:47;;;;;;;79.82;24.80;;;13.70;99.90;;;;;;5156119;27;20038;-72
2022/10/14 11:19:37;;;;;;;84.90;25.23;;;13.80;99.90;;;;;;5019209;28;20144;-74
2022/10/14 11:22:40;;;;;;;80.32;24.67;;;13.80;99.90;;;;;;5019928;28;20048;-72
2022/10/14 11:25:26;;;;;;;81.47;25.85;;;13.90;99.90;;;;;;5108825;27;20053;-75
2022/10/14 11:28:21;;;;;;;76.28;25.23;;;14.00;99.90;;;;;;5136998;27;20055;-74
2022/10/14 11:31:16;;;;;;;76.10;24.77;;;14.10;99.90;;;;;;5156723;27;20469;-75
2022/10/14 11:34:07;;;;;;;80.55;25.15;;;14.10;99.90;;;;;;5138967;27;20082;-74
2022/10/14 11:36:44;;;;;;;73.40;24.05;;;14.10;99.90;;;;;;5156408;27;20046;-75
2022/10/14 11:39:25;;;;;;;71.43;24.02;;;14.10;99.90;;;;;;5137945;27;20046;-77
2022/10/14 11:42:02;;;;;;;79.05;24.88;;;14.30;99.90;;;;;;5139722;27;20103;-76
2022/10/14 11:44:31;;;;;;;69.68;24.35;;;14.20;99.90;;;;;;5139999;27;20082;-79
2022/10/14 11:47:03;;;;;;;61.38;22.75;;;14.30;99.90;;;;;;5137932;27;20078;-74
2022/10/14 11:49:41;;;;;;;56.55;21.50;;;14.30;99.90;;;;;;5139708;27;20415;-74
2022/10/14 11:52:16;;;;;;;53.70;21.17;;;14.40;99.90;;;;;;5157387;27;20043;-75
2022/10/14 11:54:49;;;;;;;55.90;22.58;;;14.40;99.90;;;;;;5138885;27;20393;-76
2022/10/14 11:57:37;;;;;;;48.65;18.17;;;14.50;99.90;;;;;;5140715;27;20104;-76
2022/10/14 12:00:19;;;;;;;46.10;18.20;;;14.50;99.90;;;;;;5123507;27;20050;-76
2022/10/14 12:03:20;;;;;;;40.83;18.20;;;14.60;99.90;;;;;;5139733;27;20035;-74
2022/10/14 12:05:58;;;;;;;42.97;17.00;;;14.70;99.90;;;;;;5139251;27;20042;-75
2022/10/14 12:08:33;;;;;;;40.78;18.20;;;14.70;99.90;;;;;;5158247;27;20106;-75
2022/10/14 12:11:07;;;;;;;40.58;17.98;;;14.80;99.90;;;;;;5158874;27;20050;-75
2022/10/14 12:13:51;;;;;;;34.53;14.70;;;14.90;99.90;;;;;;5125542;27;20046;-75
2022/10/14 12:16:21;;;;;;;32.90;15.15;;;15.10;99.90;;;;;;5164485;27;20050;-75
2022/10/14 12:18:54;;;;;;;32.63;14.23;;;15.10;99.90;;;;;;5147424;27;20074;-79
2022/10/14 12:21:46;;;;;;;27.40;12.98;;;15.20;99.90;;;;;;5129050;27;20382;-77
2022/10/14 12:24:27;;;;;;;26.25;12.98;;;15.30;99.90;;;;;;5148614;27;20050;-73
2022/10/14 12:26:59;;;;;;;26.00;13.05;;;15.30;99.90;;;;;;5166316;27;20486;-81
2022/10/14 12:29:32;;;;;;;25.25;11.43;;;15.30;99.90;;;;;;5165804;27;20069;-77
2022/10/14 12:32:04;;;;;;;23.92;11.77;;;15.30;99.90;;;;;;5165417;27;20125;-74
2022/10/14 12:34:40;;;;;;;22.00;10.88;;;15.20;99.90;;;;;;5164963;27;20378;-74
2022/10/14 12:37:36;;;;;;;25.90;11.82;;;15.30;99.90;;;;;;5164014;27;20114;-76
2022/10/14 12:40:05;;;;;;;;;;;15.30;99.90;;;;;;5147936;27;20050;-78
2022/10/14 12:42:43;;;;;;;20.75;10.38;;;15.40;99.90;;;;;;5145571;27;19925;-82
2022/10/14 12:45:16;;;;;;;27.52;10.95;;;15.50;99.90;;;;;;5162556;27;20053;-75
2022/10/14 12:47:42;;;;;;;20.67;10.55;;;15.50;99.90;;;;;;5143684;27;20047;-75
2022/10/14 12:50:14;;;;;;;18.42;10.02;;;15.50;99.90;;;;;;5162652;27;20044;-75
2022/10/14 12:52:45;;;;;;;19.48;10.50;;;15.50;99.90;;;;;;5143557;27;20054;-75
2022/10/14 12:55:18;;;;;;;20.70;10.10;;;15.50;99.90;;;;;;5161416;27;20043;-76
2022/10/14 12:57:53;;;;;;;20.60;10.48;;;15.50;99.90;;;;;;5142972;27;20102;-77